createdAt,value
2023-03-06T00:00:31.963Z,91.37
2023-03-06T00:02:58.406Z,90.77
2023-03-06T00:05:24.832Z,91.72
2023-03-06T00:07:51.283Z,91.29
2023-03-06T00:10:23.088Z,90.57
2023-03-06T00:12:52.538Z,91.14
2023-03-06T00:15:19.378Z,91.15
2023-03-06T00:17:45.742Z,91.14
2023-03-06T00:20:13.284Z,90.99
2023-03-06T00:22:40.559Z,91.25
2023-03-06T00:25:08.708Z,91.73
2023-03-06T00:27:35.235Z,92.03
2023-03-06T00:30:01.941Z,92.39
2023-03-06T00:32:28.921Z,92.73
2023-03-06T00:34:56.199Z,93.42
2023-03-06T00:37:24.315Z,93.71
2023-03-06T00:39:50.936Z,92.75
2023-03-06T00:42:18.529Z,92.05
2023-03-06T00:44:45.528Z,92.92
2023-03-06T00:47:12.844Z,92.96
2023-03-06T00:49:39.505Z,92.59
2023-03-06T00:52:05.931Z,93.01
2023-03-06T00:54:32.314Z,93.07
2023-03-06T00:56:58.676Z,93.83
2023-03-06T00:59:25.050Z,92.61
2023-03-06T01:01:51.430Z,93.26
2023-03-06T01:04:17.814Z,93.36
2023-03-06T01:06:44.170Z,92.51
2023-03-06T01:09:10.766Z,92.61
2023-03-06T01:11:38.269Z,92.31
2023-03-06T01:14:05.258Z,91.91
2023-03-06T01:16:31.967Z,92.51
2023-03-06T01:18:58.966Z,92.58
2023-03-06T01:21:25.651Z,92.09
2023-03-06T01:23:52.180Z,92.39
2023-03-06T01:26:18.850Z,92.98
2023-03-06T01:28:45.373Z,93.86
2023-03-06T01:31:11.967Z,93.14
2023-03-06T01:33:38.393Z,93.58
2023-03-06T01:36:07.691Z,94.49
2023-03-06T01:38:35.896Z,94.71
2023-03-06T01:41:03.488Z,94.39
2023-03-06T01:43:38.378Z,94.40
2023-03-06T01:46:41.852Z,95.25
2023-03-06T01:49:22.167Z,94.68
2023-03-06T01:52:00.636Z,94.97
2023-03-06T01:54:29.498Z,94.81
2023-03-06T01:57:33.659Z,95.27
2023-03-06T02:00:06.951Z,94.81
2023-03-06T02:02:33.544Z,95.70
2023-03-06T02:05:02.577Z,95.79
2023-03-06T02:07:29.741Z,95.41
2023-03-06T02:09:56.698Z,95.01
2023-03-06T02:12:23.526Z,95.15
2023-03-06T02:14:50.164Z,94.92
2023-03-06T02:17:19.034Z,95.10
2023-03-06T02:20:03.717Z,95.47
2023-03-06T02:22:39.949Z,95.49
2023-03-06T02:25:40.945Z,94.72
2023-03-06T02:28:11.069Z,94.20
2023-03-06T02:30:38.491Z,94.60
2023-03-06T02:33:05.801Z,94.79
2023-03-06T02:35:34.786Z,94.82
2023-03-06T02:38:06.508Z,95.74
2023-03-06T02:40:32.849Z,95.18
2023-03-06T02:42:59.565Z,95.44
2023-03-06T02:45:40.570Z,95.52
2023-03-06T02:48:07.561Z,94.69
2023-03-06T02:50:33.950Z,95.21
2023-03-06T02:53:00.344Z,95.38
2023-03-06T02:55:26.895Z,95.10
2023-03-06T02:57:53.338Z,95.32
2023-03-06T03:00:19.942Z,94.51
2023-03-06T03:02:46.568Z,94.72
2023-03-06T03:05:12.922Z,94.11
2023-03-06T03:07:39.446Z,93.91
2023-03-06T03:10:06.418Z,94.20
2023-03-06T03:12:33.435Z,94.14
2023-03-06T03:14:59.798Z,94.20
2023-03-06T03:17:26.182Z,93.98
2023-03-06T03:19:52.590Z,94.36
2023-03-06T03:22:19.566Z,94.30
2023-03-06T03:24:46.476Z,94.29
2023-03-06T03:27:13.738Z,94.36
2023-03-06T03:29:40.788Z,93.95
2023-03-06T03:32:07.515Z,94.52
2023-03-06T03:34:33.975Z,94.06
2023-03-06T03:37:00.408Z,94.32
2023-03-06T03:39:26.792Z,94.29
2023-03-06T03:41:53.159Z,94.15
2023-03-06T03:44:19.636Z,93.59
2023-03-06T03:46:46.090Z,94.24
2023-03-06T03:49:12.682Z,94.49
2023-03-06T03:51:39.288Z,94.30
2023-03-06T03:54:06.731Z,94.49
2023-03-06T03:56:34.155Z,93.46
2023-03-06T03:59:00.874Z,93.05
2023-03-06T04:01:27.481Z,92.81
2023-03-06T04:03:54.326Z,93.02
2023-03-06T04:06:20.741Z,93.63
2023-03-06T04:08:47.125Z,94.00
2023-03-06T04:11:13.473Z,92.66
2023-03-06T04:13:39.880Z,93.51
2023-03-06T04:16:06.737Z,93.31
2023-03-06T04:18:33.390Z,93.77
2023-03-06T04:20:59.826Z,93.21
2023-03-06T04:23:27.772Z,92.91
2023-03-06T04:25:54.294Z,92.63
2023-03-06T04:28:21.355Z,93.09
2023-03-06T04:30:47.764Z,93.19
2023-03-06T04:33:14.223Z,92.72
2023-03-06T04:35:40.835Z,92.86
2023-03-06T04:38:07.187Z,92.88
2023-03-06T04:40:36.116Z,93.07
2023-03-06T04:43:03.607Z,92.82
2023-03-06T04:45:31.065Z,92.76
2023-03-06T04:47:58.475Z,93.49
2023-03-06T04:50:25.741Z,93.12
2023-03-06T04:52:52.289Z,93.03
2023-03-06T04:55:19.833Z,92.96
2023-03-06T04:57:47.408Z,92.90
2023-03-06T05:00:20.050Z,92.88
2023-03-06T05:02:49.103Z,93.46
2023-03-06T05:05:17.913Z,93.42
2023-03-06T05:07:44.517Z,93.27
2023-03-06T05:10:19.041Z,93.18
2023-03-06T05:12:45.665Z,93.00
2023-03-06T05:15:12.649Z,92.43
2023-03-06T05:17:42.380Z,92.98
2023-03-06T05:20:11.065Z,92.29
2023-03-06T05:22:37.587Z,92.52
2023-03-06T05:25:04.911Z,92.61
2023-03-06T05:27:31.319Z,92.85
2023-03-06T05:29:57.969Z,92.81
2023-03-06T05:32:24.447Z,93.49
2023-03-06T05:34:51.060Z,93.47
2023-03-06T05:37:17.433Z,93.64
2023-03-06T05:39:44.139Z,93.08
2023-03-06T05:42:10.549Z,92.44
2023-03-06T05:44:37.271Z,92.18
2023-03-06T05:47:03.825Z,92.52
2023-03-06T05:49:35.100Z,92.34
2023-03-06T05:52:03.966Z,92.48
2023-03-06T05:54:32.199Z,92.50
2023-03-06T05:56:58.938Z,92.26
2023-03-06T05:59:28.323Z,92.05
2023-03-06T06:01:56.063Z,92.05
2023-03-06T06:04:23.991Z,92.44
2023-03-06T06:06:55.730Z,92.53
2023-03-06T06:09:22.464Z,92.24
2023-03-06T06:11:57.671Z,92.24
2023-03-06T06:14:24.268Z,92.37
2023-03-06T06:16:51.597Z,91.79
2023-03-06T06:19:20.913Z,91.84
2023-03-06T06:21:49.243Z,91.78
2023-03-06T06:24:17.597Z,91.55
2023-03-06T06:26:44.893Z,91.91
2023-03-06T06:29:12.299Z,92.39
2023-03-06T06:31:39.439Z,91.66
2023-03-06T06:34:06.703Z,92.02
2023-03-06T06:36:33.379Z,91.92
2023-03-06T06:38:59.756Z,91.56
2023-03-06T06:41:42.720Z,91.50
2023-03-06T06:44:15.390Z,92.00
2023-03-06T06:49:32.818Z,91.12
2023-03-06T06:51:59.645Z,90.83
2023-03-06T06:54:26.432Z,90.98
2023-03-06T06:56:53.009Z,90.52
2023-03-06T06:59:19.556Z,89.38
2023-03-06T07:01:46.058Z,89.29
2023-03-06T07:04:13.710Z,88.52
2023-03-06T07:06:40.955Z,88.30
2023-03-06T07:09:07.387Z,88.00
2023-03-06T07:11:33.973Z,88.34
2023-03-06T07:14:01.757Z,88.30
2023-03-06T07:16:28.213Z,88.68
2023-03-06T07:18:54.893Z,88.95
2023-03-06T07:21:21.328Z,88.82
2023-03-06T07:23:47.688Z,88.05
2023-03-06T07:26:14.074Z,87.96
2023-03-06T07:28:51.968Z,88.09
2023-03-06T07:31:22.052Z,88.08
2023-03-06T07:33:49.865Z,88.06
2023-03-06T07:36:17.098Z,88.28
2023-03-06T07:38:43.618Z,87.89
2023-03-06T07:41:13.452Z,86.57
2023-03-06T07:43:44.313Z,86.34
2023-03-06T07:46:12.690Z,86.38
2023-03-06T07:48:39.472Z,86.97
2023-03-06T07:51:17.397Z,87.71
2023-03-06T07:53:44.345Z,87.15
2023-03-06T07:56:11.860Z,87.50
2023-03-06T07:58:40.926Z,88.37
2023-03-06T08:01:12.763Z,87.62
2023-03-06T08:03:39.401Z,87.91
2023-03-06T08:06:11.706Z,87.23
2023-03-06T08:08:40.279Z,86.97
2023-03-06T08:11:08.902Z,86.40
2023-03-06T08:13:35.839Z,86.19
2023-03-06T08:16:02.985Z,85.57
2023-03-06T08:18:29.661Z,86.07
2023-03-06T08:21:24.593Z,86.06
2023-03-06T08:23:51.384Z,85.95
2023-03-06T08:26:23.518Z,85.82
2023-03-06T08:28:52.315Z,86.31
2023-03-06T08:31:37.214Z,85.89
2023-03-06T08:34:09.905Z,85.65
2023-03-06T08:36:36.890Z,85.81
2023-03-06T08:39:04.497Z,85.56
2023-03-06T08:41:30.964Z,85.60
2023-03-06T08:43:57.402Z,85.12
2023-03-06T08:46:25.813Z,85.06
2023-03-06T08:48:52.499Z,85.83
2023-03-06T08:51:19.917Z,85.92
2023-03-06T08:53:47.011Z,85.62
2023-03-06T08:56:24.850Z,85.70
2023-03-06T08:58:52.799Z,85.81
2023-03-06T09:01:25.462Z,85.37
2023-03-06T09:03:56.439Z,85.50
2023-03-06T09:06:23.599Z,85.03
2023-03-06T09:08:54.044Z,84.12
2023-03-06T09:11:21.710Z,85.05
2023-03-06T09:13:48.151Z,84.47
2023-03-06T09:16:14.547Z,84.76
2023-03-06T09:18:40.999Z,84.77
2023-03-06T09:21:09.313Z,85.98
2023-03-06T09:23:37.094Z,85.15
2023-03-06T09:26:03.566Z,85.26
2023-03-06T09:28:29.981Z,85.07
2023-03-06T09:30:56.436Z,85.95
2023-03-06T09:33:23.494Z,86.56
2023-03-06T09:35:53.256Z,86.68
2023-03-06T09:38:23.624Z,85.87
2023-03-06T09:41:01.935Z,85.85
2023-03-06T09:43:32.933Z,85.88
2023-03-06T09:45:59.490Z,85.13
2023-03-06T09:48:40.540Z,84.31
2023-03-06T09:51:17.024Z,84.22
2023-03-06T09:53:55.423Z,83.72
2023-03-06T09:56:24.233Z,83.42
2023-03-06T09:58:55.862Z,84.70
2023-03-06T10:01:28.005Z,85.87
2023-03-06T10:04:02.868Z,86.15
2023-03-06T10:06:48.515Z,85.38
2023-03-06T10:09:20.293Z,86.00
2023-03-06T10:11:58.895Z,86.13
2023-03-06T10:14:43.996Z,85.79
2023-03-06T10:17:23.616Z,86.17
2023-03-06T10:19:50.732Z,85.46
2023-03-06T10:22:46.109Z,84.78
2023-03-06T10:25:36.676Z,84.72
2023-03-06T10:28:12.091Z,85.32
2023-03-06T10:30:52.712Z,85.02
2023-03-06T10:33:30.077Z,84.12
2023-03-06T10:35:56.844Z,83.81
2023-03-06T10:38:32.285Z,84.21
2023-03-06T10:41:10.750Z,83.84
2023-03-06T10:43:43.053Z,83.38
2023-03-06T10:46:12.055Z,84.54
2023-03-06T10:48:41.995Z,84.52
2023-03-06T10:51:19.073Z,85.10
2023-03-06T10:53:48.591Z,84.71
2023-03-06T10:56:27.546Z,85.67
2023-03-06T10:59:13.096Z,85.66
2023-03-06T11:01:49.831Z,85.80
2023-03-06T11:04:25.543Z,86.55
2023-03-06T11:07:04.544Z,86.23
2023-03-06T11:09:33.107Z,85.50
2023-03-06T11:12:35.090Z,85.68
2023-03-06T11:15:07.854Z,86.29
2023-03-06T11:17:55.869Z,85.43
2023-03-06T11:20:51.394Z,85.43
2023-03-06T11:23:21.782Z,85.45
2023-03-06T11:26:20.592Z,84.58
2023-03-06T11:28:57.362Z,85.58
2023-03-06T11:32:05.946Z,85.38
2023-03-06T11:34:38.349Z,85.76
2023-03-06T11:37:29.653Z,85.46
2023-03-06T11:40:11.287Z,85.12
2023-03-06T11:42:39.940Z,85.03
2023-03-06T11:45:57.649Z,84.71
2023-03-06T11:48:39.076Z,83.31
2023-03-06T11:51:14.878Z,82.63
2023-03-06T11:53:41.785Z,82.38
2023-03-06T11:56:08.098Z,80.74
2023-03-06T11:58:51.964Z,74.75
2023-03-06T12:01:49.604Z,71.17
2023-03-06T12:04:38.126Z,69.04
2023-03-06T12:07:32.913Z,68.09
2023-03-06T12:10:34.396Z,65.32
2023-03-06T12:13:27.654Z,63.02
2023-03-06T12:16:24.687Z,59.39
2023-03-06T12:19:12.691Z,60.82
2023-03-06T12:21:57.934Z,61.35
2023-03-06T12:24:51.064Z,60.94
2023-03-06T12:27:48.691Z,59.69
2023-03-06T12:30:24.184Z,58.49
2023-03-06T12:33:08.933Z,59.34
2023-03-06T12:35:58.899Z,59.22
2023-03-06T12:38:55.803Z,60.57
2023-03-06T12:41:47.670Z,63.16
2023-03-06T12:44:32.206Z,64.38
2023-03-06T12:47:10.068Z,65.55
2023-03-06T12:49:41.507Z,63.22
2023-03-06T12:52:11.026Z,62.38
2023-03-06T12:54:40.757Z,64.66
2023-03-06T12:57:09.083Z,65.92
2023-03-06T12:59:38.515Z,66.10
2023-03-06T13:03:02.580Z,64.40
2023-03-06T13:05:38.393Z,64.26
2023-03-06T13:08:40.183Z,63.33
2023-03-06T13:11:23.046Z,64.82
2023-03-06T13:13:49.565Z,62.44
2023-03-06T13:16:15.968Z,61.22
2023-03-06T13:18:42.303Z,60.64
2023-03-06T13:21:46.367Z,60.62
2023-03-06T13:24:37.024Z,59.56
2023-03-06T13:27:07.879Z,59.30
2023-03-06T13:29:37.207Z,57.41
2023-03-06T13:32:03.562Z,59.22
2023-03-06T13:34:46.712Z,59.64
2023-03-06T13:37:28.069Z,59.53
2023-03-06T13:39:58.352Z,61.27
2023-03-06T13:42:36.374Z,62.90
2023-03-06T13:45:19.260Z,63.64
2023-03-06T13:48:15.505Z,62.90
2023-03-06T13:50:43.751Z,62.17
2023-03-06T13:53:37.699Z,64.00
2023-03-06T13:56:29.953Z,63.92
2023-03-06T13:59:20.465Z,64.33
2023-03-06T14:02:29.015Z,64.92
2023-03-06T14:04:58.591Z,63.96
2023-03-06T14:07:30.774Z,66.55
2023-03-06T14:10:25.648Z,67.65
2023-03-06T14:12:52.135Z,68.43
2023-03-06T14:15:46.437Z,69.33
2023-03-06T14:18:12.810Z,69.04
2023-03-06T14:20:39.189Z,69.34
2023-03-06T14:23:20.840Z,69.33
2023-03-06T14:25:53.830Z,70.36
2023-03-06T14:28:29.258Z,71.53
2023-03-06T14:30:57.533Z,71.87
2023-03-06T14:33:30.343Z,73.04
2023-03-06T14:36:00.648Z,71.84
2023-03-06T14:38:30.296Z,70.35
2023-03-06T14:40:58.007Z,69.57
2023-03-06T14:43:27.757Z,70.88
2023-03-06T14:46:06.433Z,71.04
2023-03-06T14:48:44.498Z,71.28
2023-03-06T14:51:20.944Z,71.46
2023-03-06T14:53:49.996Z,71.88
2023-03-06T14:56:22.323Z,71.82
2023-03-06T14:58:59.788Z,72.48
2023-03-06T15:01:40.118Z,73.06
2023-03-06T15:04:25.024Z,73.33
2023-03-06T15:06:52.321Z,72.40
2023-03-06T15:09:33.945Z,72.61
2023-03-06T15:12:02.138Z,73.27
2023-03-06T15:14:34.008Z,73.29
2023-03-06T15:17:18.754Z,72.73
2023-03-06T15:19:47.156Z,72.66
2023-03-06T15:22:40.239Z,72.73
2023-03-06T15:25:09.707Z,72.13
2023-03-06T15:27:36.141Z,73.06
2023-03-06T15:30:23.002Z,73.54
2023-03-06T15:32:49.594Z,73.14
2023-03-06T15:35:27.481Z,71.52
2023-03-06T15:37:54.468Z,72.36
2023-03-06T15:40:23.591Z,72.40
2023-03-06T15:42:50.611Z,73.47
2023-03-06T15:45:19.978Z,74.63
2023-03-06T15:47:48.061Z,73.51
2023-03-06T15:50:19.769Z,73.22
2023-03-06T15:52:46.995Z,73.45
2023-03-06T15:55:15.083Z,74.46
2023-03-06T15:57:48.140Z,74.33
2023-03-06T16:00:27.591Z,75.51
2023-03-06T16:02:56.289Z,76.16
2023-03-06T16:05:23.497Z,75.90
2023-03-06T16:07:50.260Z,75.19
2023-03-06T16:10:22.295Z,75.33
2023-03-06T16:12:53.955Z,75.70
2023-03-06T16:15:28.880Z,76.36
2023-03-06T16:17:56.455Z,76.45
2023-03-06T16:20:28.923Z,76.29
2023-03-06T16:22:56.418Z,75.67
2023-03-06T16:25:24.908Z,74.66
2023-03-06T16:27:59.779Z,74.63
2023-03-06T16:30:30.083Z,75.37
2023-03-06T16:32:57.275Z,75.09
2023-03-06T16:35:24.575Z,75.27
2023-03-06T16:37:51.481Z,75.12
2023-03-06T16:40:25.554Z,75.48
2023-03-06T16:42:55.031Z,75.19
2023-03-06T16:45:22.975Z,73.93
2023-03-06T16:47:49.436Z,74.48
2023-03-06T16:50:28.003Z,74.16
2023-03-06T16:52:55.697Z,73.93
2023-03-06T16:55:23.409Z,74.10
2023-03-06T16:57:49.944Z,74.32
2023-03-06T17:00:19.067Z,74.33
2023-03-06T17:02:48.372Z,74.42
2023-03-06T17:05:15.650Z,74.78
2023-03-06T17:07:42.092Z,74.98
2023-03-06T17:10:12.407Z,74.98
2023-03-06T17:12:39.205Z,75.14
2023-03-06T17:15:06.992Z,75.48
2023-03-06T17:17:33.661Z,75.70
2023-03-06T17:20:00.221Z,75.40
2023-03-06T17:22:27.305Z,76.11
2023-03-06T17:24:54.159Z,76.08
2023-03-06T17:27:22.347Z,76.05
2023-03-06T17:29:48.813Z,76.45
2023-03-06T17:32:15.264Z,76.34
2023-03-06T17:34:41.812Z,76.19
2023-03-06T17:37:08.239Z,76.55
2023-03-06T17:39:37.010Z,76.74
2023-03-06T17:42:04.608Z,76.52
2023-03-06T17:44:33.642Z,76.61
2023-03-06T17:47:00.580Z,77.02
2023-03-06T17:49:27.099Z,76.46
2023-03-06T17:51:54.955Z,76.73
2023-03-06T17:54:21.333Z,76.80
2023-03-06T17:56:47.797Z,77.02
2023-03-06T17:59:14.715Z,76.95
2023-03-06T18:01:41.199Z,76.80
2023-03-06T18:04:07.659Z,76.97
2023-03-06T18:06:34.534Z,76.87
2023-03-06T18:09:01.249Z,76.77
2023-03-06T18:11:28.248Z,76.50
2023-03-06T18:13:54.791Z,76.61
2023-03-06T18:16:23.677Z,76.30
2023-03-06T18:18:55.064Z,76.09
2023-03-06T18:21:22.829Z,75.48
2023-03-06T18:23:49.726Z,75.53
2023-03-06T18:26:22.766Z,75.38
2023-03-06T18:28:53.236Z,75.23
2023-03-06T18:31:25.495Z,75.24
2023-03-06T18:33:53.446Z,74.83
2023-03-06T18:36:21.453Z,74.61
2023-03-06T18:38:48.040Z,74.32
2023-03-06T18:41:14.438Z,74.40
2023-03-06T18:43:40.852Z,74.58
2023-03-06T18:46:07.896Z,74.09
2023-03-06T18:48:34.539Z,74.02
2023-03-06T18:51:09.285Z,74.08
2023-03-06T18:53:36.393Z,74.09
2023-03-06T18:56:03.437Z,73.51
2023-03-06T18:58:29.989Z,73.29
2023-03-06T19:00:59.214Z,73.16
2023-03-06T19:03:25.696Z,72.35
2023-03-06T19:05:52.192Z,72.81
2023-03-06T19:08:18.796Z,72.45
2023-03-06T19:10:46.288Z,72.34
2023-03-06T19:13:13.513Z,71.87
2023-03-06T19:15:48.575Z,71.68
2023-03-06T19:18:17.973Z,71.95
2023-03-06T19:20:44.831Z,71.72
2023-03-06T19:23:11.412Z,70.99
2023-03-06T19:25:37.821Z,72.12
2023-03-06T19:28:04.617Z,71.06
2023-03-06T19:30:31.149Z,70.92
2023-03-06T19:32:57.690Z,70.58
2023-03-06T19:35:26.003Z,70.50
2023-03-06T19:37:53.270Z,70.73
2023-03-06T19:40:20.138Z,70.81
2023-03-06T19:42:46.722Z,70.39
2023-03-06T19:45:13.116Z,70.05
2023-03-06T19:47:39.475Z,70.47
2023-03-06T19:50:06.415Z,70.43
2023-03-06T19:52:36.361Z,69.96
2023-03-06T19:55:02.774Z,69.73
2023-03-06T19:57:29.148Z,68.78
2023-03-06T19:59:57.553Z,68.17
2023-03-06T20:02:27.078Z,68.57
2023-03-06T20:04:54.398Z,67.40
2023-03-06T20:07:21.380Z,67.08
2023-03-06T20:09:48.145Z,66.54
2023-03-06T20:12:15.036Z,66.59
2023-03-06T20:14:42.396Z,66.49
2023-03-06T20:17:08.793Z,66.59
2023-03-06T20:19:35.287Z,66.51
2023-03-06T20:22:01.784Z,66.94
2023-03-06T20:24:28.188Z,66.69
2023-03-06T20:26:57.411Z,67.33
2023-03-06T20:29:28.226Z,67.10
2023-03-06T20:31:56.414Z,66.84
2023-03-06T20:34:23.504Z,67.06
2023-03-06T20:36:50.319Z,66.84
2023-03-06T20:39:18.802Z,67.18
2023-03-06T20:41:46.703Z,67.36
2023-03-06T20:44:15.803Z,67.40
2023-03-06T20:46:42.528Z,67.79
2023-03-06T20:49:10.429Z,67.91
2023-03-06T20:51:39.082Z,68.25
2023-03-06T20:54:07.503Z,68.12
2023-03-06T20:56:35.424Z,68.34
2023-03-06T20:59:02.295Z,68.45
2023-03-06T21:01:40.998Z,68.19
2023-03-06T21:04:10.056Z,68.79
2023-03-06T21:06:37.549Z,68.71
2023-03-06T21:09:06.036Z,68.72
2023-03-06T21:11:34.531Z,69.05
2023-03-06T21:14:01.038Z,68.96
2023-03-06T21:16:28.993Z,69.18
2023-03-06T21:18:56.336Z,68.94
2023-03-06T21:21:26.009Z,68.89
2023-03-06T21:23:52.444Z,69.40
2023-03-06T21:26:21.364Z,70.87
2023-03-06T21:28:48.347Z,71.22
2023-03-06T21:31:17.084Z,72.36
2023-03-06T21:33:44.265Z,73.57
2023-03-06T21:36:11.159Z,74.07
2023-03-06T21:38:37.559Z,75.11
2023-03-06T21:41:18.446Z,76.30
2023-03-06T21:43:44.872Z,78.64
2023-03-06T21:46:11.767Z,79.99
2023-03-06T21:48:38.319Z,81.72
2023-03-06T21:51:07.175Z,82.48
2023-03-06T21:53:33.799Z,83.39
2023-03-06T21:56:03.814Z,84.68
2023-03-06T21:58:30.679Z,85.57
2023-03-06T22:00:57.174Z,84.90
2023-03-06T22:03:23.893Z,85.21
2023-03-06T22:05:51.898Z,85.40
2023-03-06T22:08:21.314Z,85.54
2023-03-06T22:10:48.929Z,86.02
2023-03-06T22:13:15.991Z,85.72
2023-03-06T22:15:53.006Z,85.59
2023-03-06T22:18:19.421Z,85.80
2023-03-06T22:20:45.833Z,85.96
2023-03-06T22:23:12.268Z,85.32
2023-03-06T22:25:38.770Z,84.81
2023-03-06T22:28:05.162Z,85.32
2023-03-06T22:30:31.598Z,84.49
2023-03-06T22:32:58.378Z,84.45
2023-03-06T22:35:24.889Z,84.32
2023-03-06T22:37:51.259Z,85.07
2023-03-06T22:40:17.752Z,84.73
2023-03-06T22:42:44.134Z,84.33
2023-03-06T22:45:11.055Z,84.86
2023-03-06T22:47:37.985Z,85.60
2023-03-06T22:50:06.130Z,85.20
2023-03-06T22:52:33.421Z,85.75
2023-03-06T22:54:59.799Z,85.61
2023-03-06T22:57:26.276Z,86.55
2023-03-06T22:59:52.705Z,86.99
2023-03-06T23:02:19.117Z,87.46
2023-03-06T23:04:52.244Z,88.18
2023-03-06T23:07:20.445Z,88.75
2023-03-06T23:09:47.055Z,89.19
2023-03-06T23:12:13.507Z,89.38
2023-03-06T23:14:39.903Z,90.34
2023-03-06T23:17:06.344Z,90.08
2023-03-06T23:19:32.783Z,90.62
2023-03-06T23:21:59.225Z,91.10
2023-03-06T23:24:25.659Z,91.87
2023-03-06T23:26:52.023Z,92.19
2023-03-06T23:29:18.422Z,91.88
2023-03-06T23:31:44.886Z,92.38
2023-03-06T23:34:11.567Z,92.79
2023-03-06T23:36:37.923Z,92.49
2023-03-06T23:39:04.398Z,92.77
2023-03-06T23:41:30.792Z,92.98
2023-03-06T23:43:58.326Z,92.82
2023-03-06T23:46:24.817Z,93.64
2023-03-06T23:48:52.176Z,94.19
2023-03-06T23:51:21.172Z,94.06
2023-03-06T23:53:52.771Z,93.92
2023-03-06T23:56:19.144Z,93.55
2023-03-06T23:58:45.661Z,93.38
